createdAt,value
2023-02-03T00:01:42.160Z,98565.00
2023-02-03T00:04:10.662Z,98566.50
2023-02-03T00:06:38.958Z,98564.66
2023-02-03T00:09:07.346Z,98562.94
2023-02-03T00:11:35.653Z,98556.50
2023-02-03T00:14:05.416Z,98550.28
2023-02-03T00:16:35.327Z,98547.66
2023-02-03T00:19:03.707Z,98543.09
2023-02-03T00:21:31.941Z,98551.72
2023-02-03T00:24:00.150Z,98540.19
2023-02-03T00:26:28.725Z,98544.31
2023-02-03T00:28:56.973Z,98543.56
2023-02-03T00:31:26.296Z,98539.72
2023-02-03T00:33:59.546Z,98533.53
2023-02-03T00:36:28.301Z,98543.00
2023-02-03T00:38:56.685Z,98531.53
2023-02-03T00:41:25.302Z,98524.50
2023-02-03T00:43:53.538Z,98534.94
2023-02-03T00:46:21.754Z,98532.22
2023-02-03T00:48:50.095Z,98527.91
2023-02-03T00:51:19.831Z,98524.50
2023-02-03T00:53:49.051Z,98525.28
2023-02-03T00:56:17.294Z,98519.84
2023-02-03T00:58:45.617Z,98510.06
2023-02-03T01:01:13.939Z,98508.28
2023-02-03T01:03:42.237Z,98515.13
2023-02-03T01:06:14.798Z,98515.13
2023-02-03T01:08:44.993Z,98516.16
2023-02-03T01:11:17.150Z,98518.72
2023-02-03T01:13:46.758Z,98517.94
2023-02-03T01:16:17.959Z,98524.91
2023-02-03T01:18:47.090Z,98517.66
2023-02-03T01:21:18.511Z,98518.53
2023-02-03T01:23:48.654Z,98520.97
2023-02-03T01:26:19.984Z,98515.59
2023-02-03T01:28:53.750Z,98521.16
2023-02-03T01:31:25.023Z,98525.28
2023-02-03T01:33:54.661Z,98528.00
2023-02-03T01:36:26.025Z,98524.44
2023-02-03T01:38:55.997Z,98522.63
2023-02-03T01:41:28.773Z,98523.50
2023-02-03T01:44:00.561Z,98516.38
2023-02-03T01:46:34.585Z,98510.06
2023-02-03T01:49:11.000Z,98507.53
2023-02-03T01:51:42.492Z,98503.88
2023-02-03T01:54:19.579Z,98511.84
2023-02-03T01:56:53.614Z,98503.13
2023-02-03T01:59:23.702Z,98500.22
2023-02-03T02:01:53.461Z,98504.72
2023-02-03T02:04:23.586Z,98505.41
2023-02-03T02:06:52.143Z,98499.22
2023-02-03T02:09:21.784Z,98507.00
2023-02-03T02:11:49.992Z,98492.19
2023-02-03T02:14:18.393Z,98486.72
2023-02-03T02:16:56.634Z,98494.53
2023-02-03T02:20:07.701Z,98494.63
2023-02-03T02:22:48.654Z,98499.88
2023-02-03T02:25:53.086Z,98501.75
2023-02-03T02:28:54.443Z,98502.19
2023-02-03T02:31:59.208Z,98510.75
2023-02-03T02:34:46.231Z,98514.19
2023-02-03T02:37:25.804Z,98492.28
2023-02-03T02:40:01.854Z,98490.28
2023-02-03T02:42:37.993Z,98483.97
2023-02-03T02:45:13.436Z,98479.03
2023-02-03T02:47:43.339Z,98471.06
2023-02-03T02:50:19.659Z,98478.00
2023-02-03T02:52:50.105Z,98473.69
2023-02-03T02:55:24.703Z,98482.28
2023-02-03T02:57:57.138Z,98483.06
2023-02-03T03:00:26.777Z,98473.50
2023-02-03T03:02:57.593Z,98482.97
2023-02-03T03:05:27.438Z,98480.44
2023-02-03T03:08:02.234Z,98476.84
2023-02-03T03:10:33.764Z,98488.22
2023-02-03T03:13:06.667Z,98470.66
2023-02-03T03:15:36.143Z,98474.97
2023-02-03T03:18:12.920Z,98476.56
2023-02-03T03:20:44.339Z,98484.34
2023-02-03T03:23:20.724Z,98486.44
2023-02-03T03:25:55.589Z,98495.81
2023-02-03T03:28:38.087Z,98482.59
2023-02-03T03:31:06.554Z,98487.19
2023-02-03T03:33:36.260Z,98480.06
2023-02-03T03:36:13.342Z,98479.94
2023-02-03T03:38:47.414Z,98468.38
2023-02-03T03:41:23.804Z,98480.50
2023-02-03T03:43:54.375Z,98491.78
2023-02-03T03:46:27.644Z,98491.56
2023-02-03T03:49:01.207Z,98478.31
2023-02-03T03:51:35.341Z,98489.69
2023-02-03T03:54:09.668Z,98474.94
2023-02-03T03:56:45.207Z,98470.44
2023-02-03T03:59:17.656Z,98478.22
2023-02-03T04:01:46.726Z,98472.03
2023-02-03T04:04:18.018Z,98486.78
2023-02-03T04:06:46.229Z,98495.50
2023-02-03T04:09:14.525Z,98495.50
2023-02-03T04:12:00.099Z,98486.78
2023-02-03T04:14:30.046Z,98485.16
2023-02-03T04:16:58.566Z,98493.91
2023-02-03T04:19:28.582Z,98490.53
2023-02-03T04:21:56.823Z,98473.63
2023-02-03T04:24:25.066Z,98469.28
2023-02-03T04:26:53.524Z,98479.72
2023-02-03T04:29:21.740Z,98499.09
2023-02-03T04:31:50.099Z,98503.38
2023-02-03T04:34:18.465Z,98500.75
2023-02-03T04:36:48.106Z,98514.78
2023-02-03T04:39:16.360Z,98523.72
2023-02-03T04:41:44.638Z,98519.09
2023-02-03T04:44:12.842Z,98509.50
2023-02-03T04:46:41.085Z,98508.84
2023-02-03T04:49:11.685Z,98518.53
2023-02-03T04:51:40.011Z,98495.69
2023-02-03T04:54:09.975Z,98489.69
2023-02-03T04:56:38.963Z,98490.44
2023-02-03T04:59:07.195Z,98487.69
2023-02-03T05:01:35.602Z,98478.81
2023-02-03T05:04:03.930Z,98492.78
2023-02-03T05:06:32.868Z,98486.69
2023-02-03T05:09:01.226Z,98486.41
2023-02-03T05:11:31.124Z,98483.00
2023-02-03T05:13:59.389Z,98492.03
2023-02-03T05:16:27.846Z,98484.34
2023-02-03T05:18:56.136Z,98480.56
2023-02-03T05:21:24.376Z,98468.91
2023-02-03T05:23:52.602Z,98474.06
2023-02-03T05:26:20.825Z,98472.19
2023-02-03T05:28:51.126Z,98467.88
2023-02-03T05:31:20.751Z,98469.38
2023-02-03T05:33:49.056Z,98481.56
2023-02-03T05:36:17.316Z,98471.91
2023-02-03T05:38:45.524Z,98465.78
2023-02-03T05:41:31.785Z,98477.94
2023-02-03T05:44:01.423Z,98482.22
2023-02-03T05:46:29.674Z,98486.53
2023-02-03T05:48:57.924Z,98477.06
2023-02-03T05:51:26.175Z,98492.75
2023-02-03T05:53:54.401Z,98490.13
2023-02-03T05:56:22.632Z,98488.44
2023-02-03T05:58:53.251Z,98481.28
2023-02-03T06:01:22.955Z,98468.13
2023-02-03T06:03:51.325Z,98476.88
2023-02-03T06:06:20.066Z,98478.56
2023-02-03T06:08:48.299Z,98476.78
2023-02-03T06:11:16.577Z,98475.00
2023-02-03T06:13:44.883Z,98463.53
2023-02-03T06:16:13.175Z,98453.84
2023-02-03T06:18:42.857Z,98473.09
2023-02-03T06:21:11.096Z,98472.16
2023-02-03T06:23:39.286Z,98480.88
2023-02-03T06:26:07.529Z,98484.66
2023-02-03T06:28:35.749Z,98483.72
2023-02-03T06:31:04.056Z,98471.31
2023-02-03T06:33:32.703Z,98467.00
2023-02-03T06:36:02.354Z,98475.81
2023-02-03T06:38:30.566Z,98468.59
2023-02-03T06:40:58.858Z,98465.94
2023-02-03T06:43:27.162Z,98464.06
2023-02-03T06:45:55.434Z,98457.97
2023-02-03T06:48:23.923Z,98466.63
2023-02-03T06:50:52.187Z,98457.97
2023-02-03T06:53:21.776Z,98441.41
2023-02-03T06:55:49.999Z,98449.31
2023-02-03T06:58:18.187Z,98440.50
2023-02-03T07:00:46.442Z,98441.22
2023-02-03T07:03:14.638Z,98435.13
2023-02-03T07:05:42.888Z,98435.94
2023-02-03T07:08:11.133Z,98437.75
2023-02-03T07:10:41.840Z,98429.78
2023-02-03T07:13:10.242Z,98424.41
2023-02-03T07:15:38.607Z,98409.72
2023-02-03T07:18:06.996Z,98414.06
2023-02-03T07:20:35.239Z,98417.44
2023-02-03T07:23:04.456Z,98424.41
2023-02-03T07:25:33.030Z,98417.34
2023-02-03T07:28:02.778Z,98418.94
2023-02-03T07:30:31.291Z,98412.81
2023-02-03T07:32:59.658Z,98422.41
2023-02-03T07:35:28.230Z,98408.94
2023-02-03T07:37:56.454Z,98402.19
2023-02-03T07:40:24.837Z,98405.66
2023-02-03T07:42:53.144Z,98416.72
2023-02-03T07:45:24.806Z,98435.91
2023-02-03T07:47:53.142Z,98438.44
2023-02-03T07:50:21.463Z,98439.25
2023-02-03T07:52:52.242Z,98445.38
2023-02-03T07:55:20.582Z,98455.06
2023-02-03T07:57:49.034Z,98447.91
2023-02-03T08:00:18.995Z,98461.19
2023-02-03T08:02:48.721Z,98463.72
2023-02-03T08:05:18.426Z,98470.66
2023-02-03T08:07:47.371Z,98463.50
2023-02-03T08:10:17.933Z,98460.22
2023-02-03T08:12:46.798Z,98444.19
2023-02-03T08:15:15.858Z,98460.31
2023-02-03T08:17:44.578Z,98439.25
2023-02-03T08:20:14.557Z,98434.84
2023-02-03T08:22:42.789Z,98439.81
2023-02-03T08:25:11.965Z,98428.34
2023-02-03T08:27:42.070Z,98436.34
2023-02-03T08:30:15.014Z,98440.47
2023-02-03T08:32:43.400Z,98432.38
2023-02-03T08:35:13.014Z,98420.78
2023-02-03T08:37:41.305Z,98427.09
2023-02-03T08:40:12.070Z,98432.56
2023-02-03T08:42:40.486Z,98415.63
2023-02-03T08:45:09.917Z,98438.25
2023-02-03T08:47:39.272Z,98425.09
2023-02-03T08:50:09.565Z,98432.38
2023-02-03T08:52:39.204Z,98431.97
2023-02-03T08:55:08.130Z,98441.44
2023-02-03T08:57:37.619Z,98429.03
2023-02-03T09:00:07.708Z,98423.75
2023-02-03T09:02:36.007Z,98429.75
2023-02-03T09:05:04.667Z,98435.22
2023-02-03T09:07:32.967Z,98431.56
2023-02-03T09:10:02.667Z,98427.13
2023-02-03T09:12:30.872Z,98425.44
2023-02-03T09:14:59.287Z,98434.09
2023-02-03T09:17:28.072Z,98443.56
2023-02-03T09:19:56.383Z,98452.31
2023-02-03T09:22:24.712Z,98442.63
2023-02-03T09:24:53.033Z,98433.25
2023-02-03T09:27:22.627Z,98439.16
2023-02-03T09:29:50.864Z,98433.03
2023-02-03T09:32:19.197Z,98418.72
2023-02-03T09:34:47.399Z,98409.03
2023-02-03T09:37:15.634Z,98414.94
2023-02-03T09:39:43.877Z,98416.81
2023-02-03T09:42:52.496Z,98417.47
2023-02-03T09:45:27.284Z,98408.81
2023-02-03T09:47:59.842Z,98403.34
2023-02-03T09:50:32.745Z,98414.59
2023-02-03T09:53:07.368Z,98405.78
2023-02-03T09:55:40.492Z,98398.78
2023-02-03T09:58:14.854Z,98415.16
2023-02-03T10:00:46.000Z,98417.34
2023-02-03T10:03:27.186Z,98413.22
2023-02-03T10:06:09.537Z,98416.31
2023-02-03T10:09:11.264Z,98413.69
2023-02-03T10:12:12.103Z,98422.75
2023-02-03T10:15:01.171Z,98404.81
2023-02-03T10:17:34.816Z,98408.19
2023-02-03T10:20:10.262Z,98399.34
2023-02-03T10:22:45.945Z,98405.34
2023-02-03T10:25:24.874Z,98402.50
2023-02-03T10:27:58.576Z,98406.63
2023-02-03T10:30:33.145Z,98404.84
2023-02-03T10:33:10.897Z,98381.03
2023-02-03T10:35:56.416Z,98386.06
2023-02-03T10:38:50.939Z,98391.25
2023-02-03T10:41:20.984Z,98405.03
2023-02-03T10:43:52.811Z,98388.72
2023-02-03T10:46:29.670Z,98399.66
2023-02-03T10:48:58.551Z,98392.59
2023-02-03T10:51:30.605Z,98398.41
2023-02-03T10:53:59.106Z,98374.59
2023-02-03T10:56:32.062Z,98375.41
2023-02-03T10:59:02.173Z,98378.03
2023-02-03T11:01:45.063Z,98388.47
2023-02-03T11:04:28.055Z,98390.78
2023-02-03T11:06:58.709Z,98380.78
2023-02-03T11:09:34.195Z,98393.84
2023-02-03T11:12:14.497Z,98370.25
2023-02-03T11:14:45.176Z,98361.38
2023-02-03T11:17:20.375Z,98356.75
2023-02-03T11:19:51.070Z,98333.34
2023-02-03T11:22:30.365Z,98333.13
2023-02-03T11:24:59.793Z,98314.03
2023-02-03T11:27:31.658Z,98308.84
2023-02-03T11:30:15.624Z,98281.84
2023-02-03T11:32:47.841Z,98274.63
2023-02-03T11:35:19.922Z,98248.91
2023-02-03T11:37:51.323Z,98245.84
2023-02-03T11:40:28.666Z,98245.00
2023-02-03T11:43:07.098Z,98240.22
2023-02-03T11:45:42.334Z,98243.72
2023-02-03T11:48:26.500Z,98251.75
2023-02-03T11:51:03.907Z,98234.16
2023-02-03T11:53:56.282Z,98240.03
2023-02-03T11:56:50.600Z,98244.38
2023-02-03T11:59:54.995Z,98243.31
2023-02-03T12:03:03.913Z,98234.66
2023-02-03T12:06:00.168Z,98231.31
2023-02-03T12:08:54.353Z,98234.53
2023-02-03T12:11:39.646Z,98223.63
2023-02-03T12:14:30.011Z,98216.81
2023-02-03T12:17:30.208Z,98218.59
2023-02-03T12:20:19.722Z,98214.78
2023-02-03T12:23:02.011Z,98206.66
2023-02-03T12:25:45.594Z,98193.47
2023-02-03T12:28:34.303Z,98193.69
2023-02-03T12:31:10.156Z,98195.75
2023-02-03T12:33:44.630Z,98190.47
2023-02-03T12:36:19.491Z,98184.22
2023-02-03T12:38:56.796Z,98190.84
2023-02-03T12:41:30.399Z,98184.00
2023-02-03T12:44:05.315Z,98186.16
2023-02-03T12:46:41.166Z,98188.81
2023-02-03T12:49:20.672Z,98176.69
2023-02-03T12:51:53.332Z,98187.72
2023-02-03T12:54:38.775Z,98185.31
2023-02-03T12:57:21.126Z,98164.22
2023-02-03T13:00:07.075Z,98170.56
2023-02-03T13:02:51.324Z,98159.78
2023-02-03T13:05:27.947Z,98160.53
2023-02-03T13:08:08.851Z,98147.31
2023-02-03T13:10:45.102Z,98140.34
2023-02-03T13:13:19.041Z,98151.38
2023-02-03T13:15:52.555Z,98153.19
2023-02-03T13:18:29.429Z,98138.53
2023-02-03T13:20:58.311Z,98109.03
2023-02-03T13:23:26.998Z,98110.81
2023-02-03T13:26:25.743Z,98087.47
2023-02-03T13:29:15.389Z,98089.13
2023-02-03T13:31:53.718Z,98081.44
2023-02-03T13:34:48.415Z,98079.19
2023-02-03T13:37:57.246Z,98050.84
2023-02-03T13:40:39.045Z,98050.03
2023-02-03T13:43:22.998Z,98048.94
2023-02-03T13:46:01.007Z,98045.94
2023-02-03T13:48:32.261Z,98041.88
2023-02-03T13:51:08.733Z,98044.28
2023-02-03T13:53:40.421Z,98036.38
2023-02-03T13:56:16.468Z,98040.06
2023-02-03T13:59:02.932Z,98030.25
2023-02-03T14:01:38.573Z,98035.41
2023-02-03T14:04:09.118Z,98029.50
2023-02-03T14:07:02.839Z,98007.81
2023-02-03T14:09:49.675Z,98016.81
2023-02-03T14:13:02.320Z,98011.53
2023-02-03T14:15:36.538Z,97991.16
2023-02-03T14:18:33.857Z,97975.78
2023-02-03T14:21:16.362Z,97977.09
2023-02-03T14:24:03.932Z,97984.03
2023-02-03T14:26:38.662Z,97971.69
2023-02-03T14:29:09.350Z,97955.75
2023-02-03T14:31:59.951Z,97943.28
2023-02-03T14:34:42.695Z,97931.38
2023-02-03T14:37:24.701Z,97977.81
2023-02-03T14:40:31.933Z,97966.28
2023-02-03T14:43:26.519Z,97977.22
2023-02-03T14:46:23.010Z,98006.03
2023-02-03T14:49:13.014Z,98001.31
2023-02-03T14:52:06.150Z,98013.56
2023-02-03T14:55:05.137Z,98012.84
2023-02-03T14:57:41.715Z,98012.00
2023-02-03T15:00:31.765Z,98020.91
2023-02-03T15:03:30.315Z,98035.41
2023-02-03T15:06:03.569Z,98033.50
2023-02-03T15:08:44.571Z,98037.19
2023-02-03T15:11:35.089Z,98032.41
2023-02-03T15:14:22.652Z,98024.84
2023-02-03T15:16:57.542Z,98043.31
2023-02-03T15:19:29.853Z,98048.47
2023-02-03T15:21:59.588Z,98030.56
2023-02-03T15:24:36.220Z,98045.97
2023-02-03T15:27:04.745Z,98053.47
2023-02-03T15:29:36.462Z,98067.06
2023-02-03T15:32:11.407Z,98057.22
2023-02-03T15:34:44.274Z,98061.03
2023-02-03T15:37:19.939Z,98065.88
2023-02-03T15:40:02.309Z,98074.47
2023-02-03T15:42:35.627Z,98088.41
2023-02-03T15:45:09.724Z,98081.72
2023-02-03T15:47:43.757Z,98060.94
2023-02-03T15:50:28.809Z,98074.16
2023-02-03T15:53:05.812Z,98078.34
2023-02-03T15:55:39.258Z,98065.00
2023-02-03T15:58:08.204Z,98065.88
2023-02-03T16:00:40.790Z,98071.03
2023-02-03T16:03:21.517Z,98047.75
2023-02-03T16:05:50.587Z,98044.38
2023-02-03T16:08:40.215Z,98048.13
2023-02-03T16:11:31.052Z,98036.38
2023-02-03T16:14:01.466Z,98025.44
2023-02-03T16:16:34.440Z,98033.25
2023-02-03T16:19:05.542Z,98029.16
2023-02-03T16:21:37.285Z,98024.34
2023-02-03T16:24:07.899Z,98017.16
2023-02-03T16:26:38.513Z,98008.41
2023-02-03T16:29:33.774Z,98011.28
2023-02-03T16:32:19.685Z,97997.34
2023-02-03T16:35:06.123Z,98000.47
2023-02-03T16:37:54.284Z,97988.63
2023-02-03T16:40:42.606Z,97989.31
2023-02-03T16:43:32.209Z,97959.84
2023-02-03T16:46:19.494Z,97914.84
2023-02-03T16:49:05.229Z,97935.25
2023-02-03T16:51:40.911Z,97948.44
2023-02-03T16:54:14.167Z,97953.59
2023-02-03T16:56:43.931Z,97942.19
2023-02-03T16:59:12.422Z,97950.47
2023-02-03T17:01:41.200Z,97937.75
2023-02-03T17:04:11.012Z,97930.69
2023-02-03T17:06:39.377Z,97910.06
2023-02-03T17:09:07.859Z,97946.66
2023-02-03T17:11:36.099Z,97937.28
2023-02-03T17:14:05.740Z,97966.28
2023-02-03T17:16:34.105Z,97961.63
2023-02-03T17:19:02.566Z,97966.78
2023-02-03T17:21:31.234Z,97996.91
2023-02-03T17:24:00.535Z,97993.66
2023-02-03T17:26:28.961Z,97980.59
2023-02-03T17:29:02.915Z,97993.06
2023-02-03T17:31:33.476Z,97988.25
2023-02-03T17:34:01.778Z,98013.31
2023-02-03T17:36:30.215Z,98013.06
2023-02-03T17:55:31.589Z,98000.59
2023-02-03T17:58:00.167Z,98013.91
2023-02-03T18:00:28.765Z,98016.06
2023-02-03T18:02:58.474Z,98003.44
2023-02-03T18:05:26.888Z,98032.66
2023-02-03T18:07:55.177Z,98000.00
2023-02-03T18:10:23.449Z,98006.94
2023-02-03T18:12:51.734Z,98002.28
2023-02-03T18:15:20.211Z,98011.84
2023-02-03T18:17:48.513Z,98009.81
2023-02-03T18:20:18.486Z,98019.94
2023-02-03T18:22:46.753Z,98011.84
2023-02-03T18:25:17.208Z,98004.91
2023-02-03T18:27:45.612Z,98000.09
2023-02-03T18:30:17.622Z,98013.03
2023-02-03T18:32:47.137Z,98022.78
2023-02-03T18:35:18.166Z,98010.41
2023-02-03T18:37:46.478Z,98017.38
2023-02-03T18:40:14.957Z,98036.56
2023-02-03T18:42:43.238Z,98034.03
2023-02-03T18:45:12.824Z,98042.69
2023-02-03T18:47:41.083Z,98056.75
2023-02-03T18:50:10.147Z,98053.00
2023-02-03T18:52:39.789Z,98045.69
2023-02-03T18:55:09.443Z,98052.88
2023-02-03T18:57:37.685Z,98054.56
2023-02-03T19:00:08.387Z,98052.31
2023-02-03T19:02:36.732Z,98047.97
2023-02-03T19:05:05.477Z,98051.34
2023-02-03T19:07:33.773Z,98057.81
2023-02-03T19:10:03.443Z,98075.09
2023-02-03T19:12:31.723Z,98098.97
2023-02-03T19:14:59.994Z,98076.75
2023-02-03T19:17:28.337Z,98093.81
2023-02-03T19:19:56.602Z,98081.22
2023-02-03T19:22:24.849Z,98090.94
2023-02-03T19:24:53.161Z,98088.66
2023-02-03T19:27:22.846Z,98096.34
2023-02-03T19:29:51.137Z,98100.06
2023-02-03T19:32:19.542Z,98091.16
2023-02-03T19:34:47.864Z,98089.63
2023-02-03T19:37:16.228Z,98096.56
2023-02-03T19:39:45.042Z,98096.81
2023-02-03T19:42:13.346Z,98089.25
2023-02-03T19:44:43.045Z,98094.66
2023-02-03T19:47:11.316Z,98101.88
2023-02-03T19:49:39.631Z,98110.97
2023-02-03T19:52:10.148Z,98104.75
2023-02-03T19:54:38.408Z,98094.75
2023-02-03T19:57:06.738Z,98102.09
2023-02-03T19:59:35.167Z,98102.59
2023-02-03T20:02:13.634Z,98105.69
2023-02-03T20:04:42.598Z,98112.91
2023-02-03T20:07:11.030Z,98117.22
2023-02-03T20:09:39.282Z,98123.47
2023-02-03T20:12:07.720Z,98119.47
2023-02-03T20:14:36.054Z,98125.38
2023-02-03T20:17:07.522Z,98111.47
2023-02-03T20:19:35.823Z,98111.09
2023-02-03T20:22:04.345Z,98116.03
2023-02-03T20:24:32.603Z,98120.31
2023-02-03T20:27:00.919Z,98126.09
2023-02-03T20:29:29.229Z,98127.50
2023-02-03T20:31:58.651Z,98123.69
2023-02-03T20:34:28.770Z,98106.88
2023-02-03T20:36:58.551Z,98114.69
2023-02-03T20:39:27.037Z,98102.34
2023-02-03T20:41:55.931Z,98108.56
2023-02-03T20:44:24.196Z,98099.09
2023-02-03T20:46:53.392Z,98118.31
2023-02-03T20:49:21.849Z,98124.16
2023-02-03T20:51:51.659Z,98126.94
2023-02-03T20:54:22.569Z,98123.34
2023-02-03T20:56:50.942Z,98135.69
2023-02-03T20:59:20.715Z,98134.84
2023-02-03T21:01:50.580Z,98137.25
2023-02-03T21:04:37.942Z,98141.72
2023-02-03T21:07:15.013Z,98141.22
2023-02-03T21:09:43.445Z,98155.84
2023-02-03T21:12:13.570Z,98158.03
2023-02-03T21:14:44.974Z,98145.03
2023-02-03T21:17:19.160Z,98153.22
2023-02-03T21:19:48.141Z,98156.84
2023-02-03T21:22:24.478Z,98165.94
2023-02-03T21:24:56.347Z,98174.59
2023-02-03T21:27:28.593Z,98178.53
2023-02-03T21:29:58.097Z,98174.97
2023-02-03T21:32:34.823Z,98166.19
2023-02-03T21:35:03.127Z,98177.09
2023-02-03T21:37:43.192Z,98173.84
2023-02-03T21:40:27.330Z,98180.94
2023-02-03T21:42:56.578Z,98137.84
2023-02-03T21:45:36.283Z,98164.72
2023-02-03T21:48:30.903Z,98190.59
2023-02-03T21:51:03.600Z,98190.72
2023-02-03T21:53:36.097Z,98182.78
2023-02-03T21:56:19.295Z,98196.84
2023-02-03T21:58:48.773Z,98209.47
2023-02-03T22:01:18.388Z,98204.06
2023-02-03T22:03:50.256Z,98212.47
2023-02-03T22:06:28.831Z,98212.38
2023-02-03T22:08:59.881Z,98216.34
2023-02-03T22:11:30.438Z,98227.38
2023-02-03T22:13:59.023Z,98229.66
2023-02-03T22:16:29.084Z,98226.91
2023-02-03T22:18:57.392Z,98245.03
2023-02-03T22:21:26.133Z,98236.28
2023-02-03T22:23:54.462Z,98234.84
2023-02-03T22:26:24.154Z,98237.97
2023-02-03T22:28:52.430Z,98241.09
2023-02-03T22:31:21.513Z,98245.56
2023-02-03T22:33:50.070Z,98262.22
2023-02-03T22:36:18.485Z,98264.97
2023-02-03T22:38:46.869Z,98261.63
2023-02-03T22:41:15.311Z,98268.31
2023-02-03T22:43:45.160Z,98267.16
2023-02-03T22:46:13.614Z,98269.69
2023-02-03T22:48:41.999Z,98268.59
2023-02-03T22:51:10.353Z,98282.31
2023-02-03T22:53:39.855Z,98283.22
2023-02-03T22:56:08.538Z,98286.00
2023-02-03T22:58:36.864Z,98274.03
2023-02-03T23:01:06.835Z,98286.72
2023-02-03T23:03:35.200Z,98283.72
2023-02-03T23:06:03.582Z,98287.47
2023-02-03T23:08:32.354Z,98276.03
2023-02-03T23:11:00.808Z,98294.41
2023-02-03T23:13:29.144Z,98296.94
2023-02-03T23:15:57.616Z,98280.81
2023-02-03T23:18:27.579Z,98280.81
2023-02-03T23:20:55.929Z,98281.69
2023-02-03T23:23:24.306Z,98289.84
2023-02-03T23:25:52.614Z,98288.16
2023-02-03T23:28:21.046Z,98274.84
2023-02-03T23:30:49.438Z,98265.34
2023-02-03T23:33:17.783Z,98267.38
2023-02-03T23:35:46.584Z,98286.09
2023-02-03T23:38:16.175Z,98284.50
2023-02-03T23:40:45.816Z,98282.22
2023-02-03T23:43:14.242Z,98288.94
2023-02-03T23:45:42.799Z,98279.94
2023-02-03T23:48:11.143Z,98277.03
2023-02-03T23:50:39.695Z,98270.22
2023-02-03T23:53:09.524Z,98272.59
2023-02-03T23:55:37.825Z,98271.16
2023-02-03T23:58:06.207Z,98275.72
